sensor_id;sensor_type;location;lat;lon;timestamp;P1;durP1;ratioP1;P2;durP2;ratioP2
25870;SDS011;13689;48.590;7.752;2023-02-14T00:02:10;57.55;;;20.08;;
25870;SDS011;13689;48.590;7.752;2023-02-14T00:04:36;54.88;;;18.85;;
25870;SDS011;13689;48.590;7.752;2023-02-14T00:07:06;52.00;;;19.40;;
25870;SDS011;13689;48.590;7.752;2023-02-14T00:09:31;58.88;;;20.52;;
25870;SDS011;13689;48.590;7.752;2023-02-14T00:11:57;56.28;;;19.48;;
25870;SDS011;13689;48.590;7.752;2023-02-14T00:14:23;61.85;;;20.85;;
25870;SDS011;13689;48.590;7.752;2023-02-14T00:17:07;52.97;;;19.20;;
25870;SDS011;13689;48.590;7.752;2023-02-14T00:19:32;61.40;;;21.50;;
25870;SDS011;13689;48.590;7.752;2023-02-14T00:21:59;46.22;;;14.88;;
25870;SDS011;13689;48.590;7.752;2023-02-14T00:24:26;57.72;;;20.27;;
25870;SDS011;13689;48.590;7.752;2023-02-14T00:26:52;62.58;;;22.30;;
25870;SDS011;13689;48.590;7.752;2023-02-14T00:29:21;53.53;;;19.95;;
25870;SDS011;13689;48.590;7.752;2023-02-14T00:31:49;52.08;;;18.10;;
25870;SDS011;13689;48.590;7.752;2023-02-14T00:34:15;55.45;;;18.80;;
25870;SDS011;13689;48.590;7.752;2023-02-14T00:36:42;49.60;;;19.42;;
25870;SDS011;13689;48.590;7.752;2023-02-14T00:39:09;46.03;;;20.27;;
25870;SDS011;13689;48.590;7.752;2023-02-14T00:41:36;50.17;;;19.60;;
25870;SDS011;13689;48.590;7.752;2023-02-14T00:44:03;55.65;;;21.05;;
25870;SDS011;13689;48.590;7.752;2023-02-14T00:46:29;56.63;;;20.52;;
25870;SDS011;13689;48.590;7.752;2023-02-14T00:48:55;56.92;;;21.33;;
25870;SDS011;13689;48.590;7.752;2023-02-14T00:51:21;55.85;;;20.92;;
25870;SDS011;13689;48.590;7.752;2023-02-14T00:53:47;63.72;;;22.55;;
25870;SDS011;13689;48.590;7.752;2023-02-14T00:56:14;59.85;;;21.77;;
25870;SDS011;13689;48.590;7.752;2023-02-14T00:58:41;60.65;;;21.98;;
25870;SDS011;13689;48.590;7.752;2023-02-14T01:01:07;65.97;;;22.52;;
25870;SDS011;13689;48.590;7.752;2023-02-14T01:03:33;55.35;;;21.83;;
25870;SDS011;13689;48.590;7.752;2023-02-14T01:05:59;50.53;;;19.50;;
25870;SDS011;13689;48.590;7.752;2023-02-14T01:11:13;47.22;;;18.60;;
25870;SDS011;13689;48.590;7.752;2023-02-14T01:13:43;52.28;;;19.73;;
25870;SDS011;13689;48.590;7.752;2023-02-14T01:16:11;41.20;;;17.08;;
25870;SDS011;13689;48.590;7.752;2023-02-14T01:18:39;46.35;;;18.70;;
25870;SDS011;13689;48.590;7.752;2023-02-14T01:21:13;48.42;;;18.88;;
25870;SDS011;13689;48.590;7.752;2023-02-14T01:23:39;49.30;;;19.58;;
25870;SDS011;13689;48.590;7.752;2023-02-14T01:26:06;50.63;;;18.95;;
25870;SDS011;13689;48.590;7.752;2023-02-14T01:28:32;49.92;;;19.80;;
25870;SDS011;13689;48.590;7.752;2023-02-14T01:31:32;52.08;;;21.08;;
25870;SDS011;13689;48.590;7.752;2023-02-14T01:33:52;49.85;;;20.23;;
25870;SDS011;13689;48.590;7.752;2023-02-14T01:36:22;52.22;;;21.40;;
25870;SDS011;13689;48.590;7.752;2023-02-14T01:38:50;48.88;;;19.90;;
25870;SDS011;13689;48.590;7.752;2023-02-14T01:41:17;45.90;;;18.25;;
25870;SDS011;13689;48.590;7.752;2023-02-14T01:43:54;49.67;;;20.58;;
25870;SDS011;13689;48.590;7.752;2023-02-14T01:46:21;45.13;;;18.38;;
25870;SDS011;13689;48.590;7.752;2023-02-14T01:48:48;48.63;;;19.77;;
25870;SDS011;13689;48.590;7.752;2023-02-14T01:51:15;52.20;;;19.63;;
25870;SDS011;13689;48.590;7.752;2023-02-14T01:53:43;48.78;;;19.02;;
25870;SDS011;13689;48.590;7.752;2023-02-14T01:56:11;49.50;;;19.88;;
25870;SDS011;13689;48.590;7.752;2023-02-14T01:58:41;50.42;;;19.33;;
25870;SDS011;13689;48.590;7.752;2023-02-14T02:01:11;51.17;;;20.92;;
25870;SDS011;13689;48.590;7.752;2023-02-14T02:03:43;53.03;;;20.75;;
25870;SDS011;13689;48.590;7.752;2023-02-14T02:06:34;52.85;;;19.17;;
25870;SDS011;13689;48.590;7.752;2023-02-14T02:11:59;58.45;;;21.33;;
25870;SDS011;13689;48.590;7.752;2023-02-14T02:14:26;54.10;;;20.30;;
25870;SDS011;13689;48.590;7.752;2023-02-14T02:20:12;60.88;;;22.08;;
25870;SDS011;13689;48.590;7.752;2023-02-14T02:39:44;50.15;;;20.83;;
25870;SDS011;13689;48.590;7.752;2023-02-14T02:48:39;55.30;;;20.75;;
25870;SDS011;13689;48.590;7.752;2023-02-14T02:51:32;54.92;;;20.38;;
25870;SDS011;13689;48.590;7.752;2023-02-14T02:54:32;51.17;;;20.00;;
25870;SDS011;13689;48.590;7.752;2023-02-14T02:57:04;51.75;;;20.20;;
25870;SDS011;13689;48.590;7.752;2023-02-14T02:59:37;55.05;;;20.60;;
25870;SDS011;13689;48.590;7.752;2023-02-14T03:02:08;53.30;;;19.92;;
25870;SDS011;13689;48.590;7.752;2023-02-14T03:04:38;54.63;;;22.15;;
25870;SDS011;13689;48.590;7.752;2023-02-14T03:07:18;59.53;;;21.70;;
25870;SDS011;13689;48.590;7.752;2023-02-14T03:13:02;54.78;;;20.08;;
25870;SDS011;13689;48.590;7.752;2023-02-14T03:29:11;52.80;;;19.42;;
25870;SDS011;13689;48.590;7.752;2023-02-14T03:37:00;59.80;;;19.58;;
25870;SDS011;13689;48.590;7.752;2023-02-14T03:42:26;54.65;;;20.77;;
25870;SDS011;13689;48.590;7.752;2023-02-14T03:45:00;53.00;;;19.33;;
25870;SDS011;13689;48.590;7.752;2023-02-14T03:47:30;60.72;;;20.20;;
25870;SDS011;13689;48.590;7.752;2023-02-14T03:50:00;56.10;;;20.48;;
25870;SDS011;13689;48.590;7.752;2023-02-14T03:52:30;58.30;;;22.45;;
25870;SDS011;13689;48.590;7.752;2023-02-14T03:54:57;54.40;;;20.30;;
25870;SDS011;13689;48.590;7.752;2023-02-14T03:57:31;50.78;;;19.88;;
25870;SDS011;13689;48.590;7.752;2023-02-14T04:00:13;55.25;;;20.60;;
25870;SDS011;13689;48.590;7.752;2023-02-14T04:02:43;48.60;;;18.63;;
25870;SDS011;13689;48.590;7.752;2023-02-14T04:05:24;53.35;;;17.75;;
25870;SDS011;13689;48.590;7.752;2023-02-14T04:07:52;53.28;;;18.30;;
25870;SDS011;13689;48.590;7.752;2023-02-14T04:10:20;51.95;;;19.50;;
25870;SDS011;13689;48.590;7.752;2023-02-14T04:12:47;55.70;;;19.08;;
25870;SDS011;13689;48.590;7.752;2023-02-14T04:15:13;54.78;;;18.65;;
25870;SDS011;13689;48.590;7.752;2023-02-14T04:17:39;55.35;;;19.88;;
25870;SDS011;13689;48.590;7.752;2023-02-14T04:20:23;45.92;;;17.38;;
25870;SDS011;13689;48.590;7.752;2023-02-14T04:22:49;12.48;;;5.28;;
25870;SDS011;13689;48.590;7.752;2023-02-14T04:25:15;44.42;;;15.10;;
25870;SDS011;13689;48.590;7.752;2023-02-14T04:27:41;47.90;;;18.65;;
25870;SDS011;13689;48.590;7.752;2023-02-14T04:30:07;58.92;;;19.25;;
25870;SDS011;13689;48.590;7.752;2023-02-14T04:32:34;47.55;;;18.52;;
25870;SDS011;13689;48.590;7.752;2023-02-14T04:34:59;53.03;;;18.95;;
25870;SDS011;13689;48.590;7.752;2023-02-14T04:37:25;50.63;;;18.05;;
25870;SDS011;13689;48.590;7.752;2023-02-14T04:39:51;57.60;;;20.05;;
25870;SDS011;13689;48.590;7.752;2023-02-14T04:42:16;44.35;;;17.45;;
25870;SDS011;13689;48.590;7.752;2023-02-14T04:44:42;50.80;;;18.90;;
25870;SDS011;13689;48.590;7.752;2023-02-14T04:47:07;42.75;;;15.98;;
25870;SDS011;13689;48.590;7.752;2023-02-14T04:49:33;44.28;;;16.77;;
25870;SDS011;13689;48.590;7.752;2023-02-14T04:51:59;45.70;;;16.98;;
25870;SDS011;13689;48.590;7.752;2023-02-14T04:54:25;47.85;;;16.85;;
25870;SDS011;13689;48.590;7.752;2023-02-14T04:56:50;47.20;;;18.15;;
25870;SDS011;13689;48.590;7.752;2023-02-14T04:59:16;46.70;;;17.95;;
25870;SDS011;13689;48.590;7.752;2023-02-14T05:01:42;30.67;;;10.88;;
25870;SDS011;13689;48.590;7.752;2023-02-14T05:04:08;44.83;;;17.40;;
25870;SDS011;13689;48.590;7.752;2023-02-14T05:06:34;50.20;;;17.17;;
25870;SDS011;13689;48.590;7.752;2023-02-14T05:09:00;58.30;;;19.75;;
25870;SDS011;13689;48.590;7.752;2023-02-14T05:11:26;51.80;;;17.42;;
25870;SDS011;13689;48.590;7.752;2023-02-14T05:13:53;50.25;;;17.40;;
25870;SDS011;13689;48.590;7.752;2023-02-14T05:16:19;52.33;;;18.13;;
25870;SDS011;13689;48.590;7.752;2023-02-14T05:18:45;54.92;;;20.00;;
25870;SDS011;13689;48.590;7.752;2023-02-14T05:21:10;47.75;;;18.00;;
25870;SDS011;13689;48.590;7.752;2023-02-14T05:23:36;39.85;;;15.75;;
25870;SDS011;13689;48.590;7.752;2023-02-14T05:26:02;47.00;;;16.98;;
25870;SDS011;13689;48.590;7.752;2023-02-14T05:28:28;19.77;;;9.02;;
25870;SDS011;13689;48.590;7.752;2023-02-14T05:30:54;27.25;;;11.18;;
25870;SDS011;13689;48.590;7.752;2023-02-14T05:33:21;38.05;;;16.23;;
25870;SDS011;13689;48.590;7.752;2023-02-14T05:35:47;36.15;;;14.30;;
25870;SDS011;13689;48.590;7.752;2023-02-14T05:38:13;45.20;;;14.88;;
25870;SDS011;13689;48.590;7.752;2023-02-14T05:40:39;41.25;;;15.75;;
25870;SDS011;13689;48.590;7.752;2023-02-14T05:43:05;42.38;;;15.48;;
25870;SDS011;13689;48.590;7.752;2023-02-14T05:45:31;40.63;;;13.75;;
25870;SDS011;13689;48.590;7.752;2023-02-14T05:47:56;23.70;;;9.07;;
25870;SDS011;13689;48.590;7.752;2023-02-14T05:50:22;39.72;;;15.63;;
25870;SDS011;13689;48.590;7.752;2023-02-14T05:52:47;39.78;;;14.55;;
25870;SDS011;13689;48.590;7.752;2023-02-14T05:55:13;39.03;;;14.25;;
25870;SDS011;13689;48.590;7.752;2023-02-14T05:57:39;42.75;;;13.70;;
25870;SDS011;13689;48.590;7.752;2023-02-14T06:00:05;28.52;;;11.10;;
25870;SDS011;13689;48.590;7.752;2023-02-14T06:02:32;31.23;;;11.98;;
25870;SDS011;13689;48.590;7.752;2023-02-14T06:04:57;42.47;;;14.82;;
25870;SDS011;13689;48.590;7.752;2023-02-14T06:07:23;39.67;;;14.00;;
25870;SDS011;13689;48.590;7.752;2023-02-14T06:09:49;34.00;;;13.10;;
25870;SDS011;13689;48.590;7.752;2023-02-14T06:12:14;34.17;;;13.65;;
25870;SDS011;13689;48.590;7.752;2023-02-14T06:14:40;32.17;;;13.73;;
25870;SDS011;13689;48.590;7.752;2023-02-14T06:17:07;31.45;;;11.60;;
25870;SDS011;13689;48.590;7.752;2023-02-14T06:19:33;31.90;;;13.40;;
25870;SDS011;13689;48.590;7.752;2023-02-14T06:21:58;33.50;;;13.85;;
25870;SDS011;13689;48.590;7.752;2023-02-14T06:24:24;43.10;;;14.90;;
25870;SDS011;13689;48.590;7.752;2023-02-14T06:26:50;31.83;;;11.63;;
25870;SDS011;13689;48.590;7.752;2023-02-14T06:29:15;40.55;;;16.17;;
25870;SDS011;13689;48.590;7.752;2023-02-14T06:31:41;27.25;;;10.90;;
25870;SDS011;13689;48.590;7.752;2023-02-14T06:34:07;13.98;;;5.00;;
25870;SDS011;13689;48.590;7.752;2023-02-14T06:36:33;36.97;;;13.68;;
25870;SDS011;13689;48.590;7.752;2023-02-14T06:38:58;38.72;;;15.02;;
25870;SDS011;13689;48.590;7.752;2023-02-14T06:41:24;12.52;;;4.78;;
25870;SDS011;13689;48.590;7.752;2023-02-14T06:43:49;31.65;;;12.13;;
25870;SDS011;13689;48.590;7.752;2023-02-14T06:46:16;8.63;;;3.85;;
25870;SDS011;13689;48.590;7.752;2023-02-14T06:48:42;32.08;;;11.38;;
25870;SDS011;13689;48.590;7.752;2023-02-14T06:51:09;29.40;;;11.25;;
25870;SDS011;13689;48.590;7.752;2023-02-14T06:53:35;24.70;;;10.07;;
25870;SDS011;13689;48.590;7.752;2023-02-14T06:56:01;4.85;;;2.58;;
25870;SDS011;13689;48.590;7.752;2023-02-14T06:58:27;37.05;;;14.18;;
25870;SDS011;13689;48.590;7.752;2023-02-14T07:00:56;33.40;;;11.98;;
25870;SDS011;13689;48.590;7.752;2023-02-14T07:03:22;43.35;;;16.02;;
25870;SDS011;13689;48.590;7.752;2023-02-14T07:05:49;39.22;;;14.65;;
25870;SDS011;13689;48.590;7.752;2023-02-14T07:08:15;39.35;;;15.40;;
25870;SDS011;13689;48.590;7.752;2023-02-14T07:10:40;34.75;;;13.05;;
25870;SDS011;13689;48.590;7.752;2023-02-14T07:13:06;39.05;;;14.93;;
25870;SDS011;13689;48.590;7.752;2023-02-14T07:15:32;41.05;;;14.60;;
25870;SDS011;13689;48.590;7.752;2023-02-14T07:17:57;36.63;;;13.55;;
25870;SDS011;13689;48.590;7.752;2023-02-14T07:20:23;37.05;;;14.05;;
25870;SDS011;13689;48.590;7.752;2023-02-14T07:22:49;36.47;;;13.23;;
25870;SDS011;13689;48.590;7.752;2023-02-14T07:25:15;35.17;;;14.75;;
25870;SDS011;13689;48.590;7.752;2023-02-14T07:27:40;34.75;;;12.65;;
25870;SDS011;13689;48.590;7.752;2023-02-14T07:30:07;35.97;;;14.80;;
25870;SDS011;13689;48.590;7.752;2023-02-14T07:32:36;38.40;;;16.02;;
25870;SDS011;13689;48.590;7.752;2023-02-14T07:35:02;41.58;;;15.35;;
25870;SDS011;13689;48.590;7.752;2023-02-14T07:37:28;42.28;;;15.73;;
25870;SDS011;13689;48.590;7.752;2023-02-14T07:39:59;22.88;;;7.63;;
25870;SDS011;13689;48.590;7.752;2023-02-14T07:42:25;34.30;;;10.48;;
25870;SDS011;13689;48.590;7.752;2023-02-14T07:44:51;21.38;;;5.30;;
25870;SDS011;13689;48.590;7.752;2023-02-14T07:47:16;33.33;;;13.32;;
25870;SDS011;13689;48.590;7.752;2023-02-14T07:49:42;23.23;;;10.52;;
25870;SDS011;13689;48.590;7.752;2023-02-14T07:52:07;34.28;;;12.90;;
25870;SDS011;13689;48.590;7.752;2023-02-14T07:54:33;36.22;;;13.55;;
25870;SDS011;13689;48.590;7.752;2023-02-14T07:56:59;37.75;;;13.57;;
25870;SDS011;13689;48.590;7.752;2023-02-14T07:59:24;33.45;;;12.75;;
25870;SDS011;13689;48.590;7.752;2023-02-14T08:01:50;15.48;;;6.53;;
25870;SDS011;13689;48.590;7.752;2023-02-14T08:04:16;30.33;;;12.80;;
25870;SDS011;13689;48.590;7.752;2023-02-14T08:06:42;37.65;;;14.98;;
25870;SDS011;13689;48.590;7.752;2023-02-14T08:09:08;39.20;;;13.15;;
25870;SDS011;13689;48.590;7.752;2023-02-14T08:11:34;34.13;;;13.23;;
25870;SDS011;13689;48.590;7.752;2023-02-14T08:14:19;36.25;;;13.88;;
25870;SDS011;13689;48.590;7.752;2023-02-14T08:16:45;35.40;;;13.50;;
25870;SDS011;13689;48.590;7.752;2023-02-14T08:19:11;37.55;;;14.93;;
25870;SDS011;13689;48.590;7.752;2023-02-14T08:21:36;41.17;;;14.80;;
25870;SDS011;13689;48.590;7.752;2023-02-14T08:24:02;28.00;;;11.77;;
25870;SDS011;13689;48.590;7.752;2023-02-14T08:26:27;29.20;;;8.93;;
25870;SDS011;13689;48.590;7.752;2023-02-14T08:28:53;37.50;;;12.75;;
25870;SDS011;13689;48.590;7.752;2023-02-14T08:31:22;29.13;;;11.63;;
25870;SDS011;13689;48.590;7.752;2023-02-14T08:33:53;41.63;;;14.88;;
25870;SDS011;13689;48.590;7.752;2023-02-14T08:36:18;36.83;;;14.23;;
25870;SDS011;13689;48.590;7.752;2023-02-14T08:38:47;42.13;;;15.35;;
25870;SDS011;13689;48.590;7.752;2023-02-14T08:41:16;39.15;;;14.80;;
25870;SDS011;13689;48.590;7.752;2023-02-14T08:43:49;37.83;;;13.70;;
25870;SDS011;13689;48.590;7.752;2023-02-14T08:46:18;35.63;;;14.05;;
25870;SDS011;13689;48.590;7.752;2023-02-14T08:48:44;39.40;;;14.95;;
25870;SDS011;13689;48.590;7.752;2023-02-14T08:51:11;38.63;;;15.52;;
25870;SDS011;13689;48.590;7.752;2023-02-14T08:53:40;46.25;;;15.48;;
25870;SDS011;13689;48.590;7.752;2023-02-14T08:56:07;42.15;;;15.07;;
25870;SDS011;13689;48.590;7.752;2023-02-14T08:58:35;38.72;;;15.52;;
25870;SDS011;13689;48.590;7.752;2023-02-14T09:01:13;37.17;;;14.20;;
25870;SDS011;13689;48.590;7.752;2023-02-14T09:03:40;40.28;;;15.27;;
25870;SDS011;13689;48.590;7.752;2023-02-14T09:06:08;35.10;;;14.40;;
25870;SDS011;13689;48.590;7.752;2023-02-14T09:08:35;44.58;;;15.52;;
25870;SDS011;13689;48.590;7.752;2023-02-14T09:11:21;38.42;;;15.25;;
25870;SDS011;13689;48.590;7.752;2023-02-14T09:13:48;42.72;;;14.80;;
25870;SDS011;13689;48.590;7.752;2023-02-14T09:16:15;39.17;;;13.93;;
25870;SDS011;13689;48.590;7.752;2023-02-14T09:18:44;40.03;;;16.52;;
25870;SDS011;13689;48.590;7.752;2023-02-14T09:21:12;42.88;;;16.42;;
25870;SDS011;13689;48.590;7.752;2023-02-14T09:23:40;50.22;;;16.38;;
25870;SDS011;13689;48.590;7.752;2023-02-14T09:26:06;40.92;;;17.10;;
25870;SDS011;13689;48.590;7.752;2023-02-14T09:31:06;36.95;;;14.75;;
25870;SDS011;13689;48.590;7.752;2023-02-14T09:33:33;40.78;;;14.82;;
25870;SDS011;13689;48.590;7.752;2023-02-14T09:36:18;43.20;;;16.08;;
25870;SDS011;13689;48.590;7.752;2023-02-14T09:39:03;48.95;;;16.13;;
25870;SDS011;13689;48.590;7.752;2023-02-14T09:49:59;52.85;;;18.30;;
25870;SDS011;13689;48.590;7.752;2023-02-14T09:52:29;40.35;;;15.40;;
25870;SDS011;13689;48.590;7.752;2023-02-14T09:54:59;41.03;;;16.60;;
25870;SDS011;13689;48.590;7.752;2023-02-14T09:57:44;46.08;;;17.48;;
25870;SDS011;13689;48.590;7.752;2023-02-14T10:05:53;43.88;;;16.98;;
25870;SDS011;13689;48.590;7.752;2023-02-14T10:11:17;51.42;;;17.77;;
25870;SDS011;13689;48.590;7.752;2023-02-14T10:13:50;46.45;;;18.38;;
25870;SDS011;13689;48.590;7.752;2023-02-14T10:19:05;47.10;;;17.88;;
25870;SDS011;13689;48.590;7.752;2023-02-14T10:21:47;43.27;;;16.77;;
25870;SDS011;13689;48.590;7.752;2023-02-14T10:24:38;50.22;;;18.20;;
25870;SDS011;13689;48.590;7.752;2023-02-14T10:30:06;59.75;;;19.45;;
25870;SDS011;13689;48.590;7.752;2023-02-14T10:32:46;46.40;;;17.85;;
25870;SDS011;13689;48.590;7.752;2023-02-14T10:40:47;48.15;;;17.98;;
25870;SDS011;13689;48.590;7.752;2023-02-14T10:43:44;49.03;;;19.17;;
25870;SDS011;13689;48.590;7.752;2023-02-14T10:54:17;45.22;;;17.60;;
25870;SDS011;13689;48.590;7.752;2023-02-14T10:57:13;45.92;;;17.95;;
25870;SDS011;13689;48.590;7.752;2023-02-14T11:00:00;50.70;;;18.25;;
25870;SDS011;13689;48.590;7.752;2023-02-14T11:02:39;44.65;;;17.35;;
25870;SDS011;13689;48.590;7.752;2023-02-14T11:05:16;43.22;;;16.67;;
25870;SDS011;13689;48.590;7.752;2023-02-14T11:07:52;40.00;;;15.15;;
25870;SDS011;13689;48.590;7.752;2023-02-14T11:10:22;46.42;;;18.08;;
25870;SDS011;13689;48.590;7.752;2023-02-14T11:12:56;49.20;;;19.50;;
25870;SDS011;13689;48.590;7.752;2023-02-14T11:15:26;42.38;;;17.70;;
25870;SDS011;13689;48.590;7.752;2023-02-14T11:20:44;48.65;;;19.30;;
25870;SDS011;13689;48.590;7.752;2023-02-14T11:23:31;38.50;;;16.77;;
25870;SDS011;13689;48.590;7.752;2023-02-14T11:25:59;48.05;;;18.60;;
25870;SDS011;13689;48.590;7.752;2023-02-14T11:28:26;49.42;;;18.67;;
25870;SDS011;13689;48.590;7.752;2023-02-14T11:30:51;43.33;;;18.88;;
25870;SDS011;13689;48.590;7.752;2023-02-14T11:33:35;55.65;;;21.30;;
25870;SDS011;13689;48.590;7.752;2023-02-14T11:36:04;48.25;;;19.27;;
25870;SDS011;13689;48.590;7.752;2023-02-14T11:38:35;51.42;;;18.55;;
25870;SDS011;13689;48.590;7.752;2023-02-14T11:41:04;47.85;;;19.90;;
25870;SDS011;13689;48.590;7.752;2023-02-14T11:43:33;50.83;;;18.38;;
25870;SDS011;13689;48.590;7.752;2023-02-14T11:48:58;39.28;;;15.63;;
25870;SDS011;13689;48.590;7.752;2023-02-14T11:53:55;47.40;;;19.15;;
25870;SDS011;13689;48.590;7.752;2023-02-14T11:56:41;50.85;;;19.73;;
25870;SDS011;13689;48.590;7.752;2023-02-14T11:59:21;52.53;;;20.60;;
25870;SDS011;13689;48.590;7.752;2023-02-14T12:02:00;52.50;;;20.67;;
25870;SDS011;13689;48.590;7.752;2023-02-14T12:04:34;53.17;;;22.52;;
25870;SDS011;13689;48.590;7.752;2023-02-14T12:07:12;52.15;;;20.98;;
25870;SDS011;13689;48.590;7.752;2023-02-14T12:09:40;57.05;;;22.98;;
25870;SDS011;13689;48.590;7.752;2023-02-14T12:12:17;41.17;;;13.82;;
25870;SDS011;13689;48.590;7.752;2023-02-14T12:14:47;54.13;;;20.60;;
25870;SDS011;13689;48.590;7.752;2023-02-14T12:17:16;49.83;;;20.00;;
25870;SDS011;13689;48.590;7.752;2023-02-14T12:20:03;59.20;;;21.73;;
25870;SDS011;13689;48.590;7.752;2023-02-14T12:22:45;57.63;;;20.83;;
25870;SDS011;13689;48.590;7.752;2023-02-14T12:25:39;41.42;;;15.13;;
25870;SDS011;13689;48.590;7.752;2023-02-14T12:28:17;52.10;;;20.05;;
25870;SDS011;13689;48.590;7.752;2023-02-14T12:30:48;48.25;;;18.30;;
25870;SDS011;13689;48.590;7.752;2023-02-14T12:33:16;61.35;;;21.92;;
25870;SDS011;13689;48.590;7.752;2023-02-14T12:36:07;54.25;;;21.30;;
25870;SDS011;13689;48.590;7.752;2023-02-14T12:41:35;57.05;;;21.45;;
25870;SDS011;13689;48.590;7.752;2023-02-14T12:44:33;62.13;;;22.15;;
25870;SDS011;13689;48.590;7.752;2023-02-14T12:47:13;59.88;;;23.98;;
25870;SDS011;13689;48.590;7.752;2023-02-14T12:49:53;60.90;;;22.63;;
25870;SDS011;13689;48.590;7.752;2023-02-14T12:52:27;57.00;;;19.63;;
25870;SDS011;13689;48.590;7.752;2023-02-14T12:55:26;64.05;;;23.10;;
25870;SDS011;13689;48.590;7.752;2023-02-14T12:58:22;59.65;;;21.67;;
25870;SDS011;13689;48.590;7.752;2023-02-14T13:00:59;63.03;;;22.00;;
25870;SDS011;13689;48.590;7.752;2023-02-14T13:06:37;59.70;;;21.60;;
25870;SDS011;13689;48.590;7.752;2023-02-14T13:21:54;66.38;;;26.15;;
25870;SDS011;13689;48.590;7.752;2023-02-14T13:24:22;55.85;;;22.27;;
25870;SDS011;13689;48.590;7.752;2023-02-14T13:27:00;60.25;;;23.08;;
25870;SDS011;13689;48.590;7.752;2023-02-14T13:29:28;57.72;;;21.02;;
25870;SDS011;13689;48.590;7.752;2023-02-14T13:32:01;68.78;;;24.73;;
25870;SDS011;13689;48.590;7.752;2023-02-14T13:34:29;61.63;;;21.35;;
25870;SDS011;13689;48.590;7.752;2023-02-14T13:36:59;55.85;;;21.52;;
25870;SDS011;13689;48.590;7.752;2023-02-14T13:39:31;73.53;;;26.02;;
25870;SDS011;13689;48.590;7.752;2023-02-14T13:42:04;66.25;;;24.85;;
25870;SDS011;13689;48.590;7.752;2023-02-14T13:44:46;71.05;;;26.05;;
25870;SDS011;13689;48.590;7.752;2023-02-14T13:49:46;69.28;;;24.45;;
25870;SDS011;13689;48.590;7.752;2023-02-14T13:55:07;65.60;;;25.90;;
25870;SDS011;13689;48.590;7.752;2023-02-14T13:58:16;64.00;;;24.10;;
25870;SDS011;13689;48.590;7.752;2023-02-14T14:00:45;68.57;;;25.00;;
25870;SDS011;13689;48.590;7.752;2023-02-14T14:08:47;69.78;;;26.27;;
25870;SDS011;13689;48.590;7.752;2023-02-14T14:13:53;68.13;;;21.60;;
25870;SDS011;13689;48.590;7.752;2023-02-14T14:18:53;63.05;;;24.80;;
25870;SDS011;13689;48.590;7.752;2023-02-14T14:26:45;52.03;;;17.77;;
25870;SDS011;13689;48.590;7.752;2023-02-14T14:29:21;58.65;;;22.83;;
25870;SDS011;13689;48.590;7.752;2023-02-14T14:31:55;58.30;;;20.52;;
25870;SDS011;13689;48.590;7.752;2023-02-14T14:34:22;60.78;;;23.30;;
25870;SDS011;13689;48.590;7.752;2023-02-14T14:36:59;61.80;;;23.38;;
25870;SDS011;13689;48.590;7.752;2023-02-14T14:39:27;58.13;;;21.13;;
25870;SDS011;13689;48.590;7.752;2023-02-14T14:41:55;56.90;;;22.58;;
25870;SDS011;13689;48.590;7.752;2023-02-14T14:44:29;64.60;;;24.17;;
25870;SDS011;13689;48.590;7.752;2023-02-14T14:47:00;64.10;;;24.10;;
25870;SDS011;13689;48.590;7.752;2023-02-14T14:49:26;64.25;;;21.95;;
25870;SDS011;13689;48.590;7.752;2023-02-14T14:51:52;58.78;;;21.38;;
25870;SDS011;13689;48.590;7.752;2023-02-14T14:54:20;65.77;;;24.57;;
25870;SDS011;13689;48.590;7.752;2023-02-14T14:56:50;57.05;;;21.35;;
25870;SDS011;13689;48.590;7.752;2023-02-14T14:59:18;44.95;;;16.17;;
25870;SDS011;13689;48.590;7.752;2023-02-14T15:01:51;61.15;;;23.25;;
25870;SDS011;13689;48.590;7.752;2023-02-14T15:04:19;68.57;;;23.40;;
25870;SDS011;13689;48.590;7.752;2023-02-14T15:06:50;60.30;;;22.90;;
25870;SDS011;13689;48.590;7.752;2023-02-14T15:09:20;60.45;;;21.45;;
25870;SDS011;13689;48.590;7.752;2023-02-14T15:11:55;55.17;;;21.00;;
25870;SDS011;13689;48.590;7.752;2023-02-14T15:14:45;59.17;;;22.58;;
25870;SDS011;13689;48.590;7.752;2023-02-14T15:17:24;55.33;;;22.75;;
25870;SDS011;13689;48.590;7.752;2023-02-14T15:20:04;54.72;;;21.33;;
25870;SDS011;13689;48.590;7.752;2023-02-14T15:22:40;51.08;;;19.40;;
25870;SDS011;13689;48.590;7.752;2023-02-14T15:25:09;64.03;;;21.98;;
25870;SDS011;13689;48.590;7.752;2023-02-14T15:27:40;53.13;;;20.45;;
25870;SDS011;13689;48.590;7.752;2023-02-14T15:30:28;48.40;;;17.80;;
25870;SDS011;13689;48.590;7.752;2023-02-14T15:33:01;63.42;;;20.70;;
25870;SDS011;13689;48.590;7.752;2023-02-14T15:35:30;58.03;;;22.50;;
25870;SDS011;13689;48.590;7.752;2023-02-14T15:37:59;67.35;;;22.95;;
25870;SDS011;13689;48.590;7.752;2023-02-14T15:40:27;63.60;;;21.63;;
25870;SDS011;13689;48.590;7.752;2023-02-14T15:42:55;57.92;;;21.70;;
25870;SDS011;13689;48.590;7.752;2023-02-14T15:45:43;68.93;;;24.15;;
25870;SDS011;13689;48.590;7.752;2023-02-14T15:48:13;58.25;;;21.23;;
25870;SDS011;13689;48.590;7.752;2023-02-14T15:50:45;35.85;;;13.20;;
25870;SDS011;13689;48.590;7.752;2023-02-14T15:55:45;63.67;;;21.05;;
25870;SDS011;13689;48.590;7.752;2023-02-14T15:58:17;64.65;;;23.25;;
25870;SDS011;13689;48.590;7.752;2023-02-14T16:00:46;67.30;;;22.27;;
25870;SDS011;13689;48.590;7.752;2023-02-14T16:03:24;61.30;;;20.48;;
25870;SDS011;13689;48.590;7.752;2023-02-14T16:05:52;64.28;;;23.00;;
25870;SDS011;13689;48.590;7.752;2023-02-14T16:08:23;63.15;;;23.52;;
25870;SDS011;13689;48.590;7.752;2023-02-14T16:13:50;67.20;;;22.95;;
25870;SDS011;13689;48.590;7.752;2023-02-14T16:16:16;61.15;;;22.98;;
25870;SDS011;13689;48.590;7.752;2023-02-14T16:18:43;69.53;;;22.77;;
25870;SDS011;13689;48.590;7.752;2023-02-14T16:21:16;61.55;;;22.00;;
25870;SDS011;13689;48.590;7.752;2023-02-14T16:26:35;64.30;;;22.40;;
25870;SDS011;13689;48.590;7.752;2023-02-14T16:29:05;64.85;;;21.85;;
25870;SDS011;13689;48.590;7.752;2023-02-14T16:31:43;63.75;;;21.73;;
25870;SDS011;13689;48.590;7.752;2023-02-14T16:34:11;67.85;;;23.88;;
25870;SDS011;13689;48.590;7.752;2023-02-14T16:36:38;65.22;;;22.35;;
25870;SDS011;13689;48.590;7.752;2023-02-14T16:39:04;71.00;;;22.13;;
25870;SDS011;13689;48.590;7.752;2023-02-14T16:41:35;66.97;;;23.42;;
25870;SDS011;13689;48.590;7.752;2023-02-14T16:44:00;75.15;;;26.65;;
25870;SDS011;13689;48.590;7.752;2023-02-14T16:46:30;69.93;;;23.15;;
25870;SDS011;13689;48.590;7.752;2023-02-14T16:48:58;74.72;;;23.83;;
25870;SDS011;13689;48.590;7.752;2023-02-14T16:51:26;69.50;;;23.50;;
25870;SDS011;13689;48.590;7.752;2023-02-14T16:53:54;70.65;;;23.70;;
25870;SDS011;13689;48.590;7.752;2023-02-14T16:56:23;70.53;;;22.60;;
25870;SDS011;13689;48.590;7.752;2023-02-14T16:58:57;69.68;;;22.80;;
25870;SDS011;13689;48.590;7.752;2023-02-14T17:01:24;66.30;;;23.38;;
25870;SDS011;13689;48.590;7.752;2023-02-14T17:03:49;74.30;;;24.17;;
25870;SDS011;13689;48.590;7.752;2023-02-14T17:06:16;73.57;;;23.52;;
25870;SDS011;13689;48.590;7.752;2023-02-14T17:08:46;88.28;;;26.52;;
25870;SDS011;13689;48.590;7.752;2023-02-14T17:11:13;86.13;;;24.58;;
25870;SDS011;13689;48.590;7.752;2023-02-14T17:13:39;80.43;;;25.52;;